KAUO/AUO METAR and TAF weather

Enter ICAO airport designator
Station Type Date Time Source
KAUO METAR 2019/04/19 22:15 UTC NOAA

KAUO 192215Z AUTO 28015G22KT 6SM -RA BR FEW015 BKN022 BKN035 12/11 A2964 RMK AO2 P0000 TSNO


Station Type Date Time Source
KAUO Decoded METAR 2019/04/19 22:15 UTC NOAA

Auburn-Opelika Airport, AL, United States (KAUO) 32-37N 085-26W
Apr 19, 2019 - 06:15 PM EDT / 2019.04.19 2215 UTC
Wind: from the W (280 degrees) at 17 MPH (15 KT) gusting to 25 MPH (22 KT):0
Visibility: 6 mile(s):0
Sky conditions: mostly cloudy
Weather: light rain; mist
Precipitation last hour: A trace
Temperature: 53 F (12 C)
Dew Point: 51 F (11 C)
Relative Humidity: 93%
Pressure (altimeter): 29.64 in. Hg (1003 hPa)
ob: KAUO 192215Z AUTO 28015G22KT 6SM -RA BR FEW015 BKN022 BKN035 12/11 A2964 RMK AO2 P0000 TSNO
cycle: 22

Station Type Date Time Source
KAUO TAF UTC NOAA

Error!

Example: see airport list